Time;durP1;ratioP1;P1;durP2;ratioP2;P2;SDS_P1;SDS_P2;PMS_P1;PMS_P2;Temp;Humidity;BMP_temperature;BMP_pressure;BME280_temperature;BME280_humidity;BME280_pressure;Samples;Min_cycle;Max_cycle;Signal;HPM_P1;HPM_P2
2021/01/20 00:00:28;;;;;;;8.80;5.35;;;8.30;98.10;;;;;;5052507;28;20025;-66
2021/01/20 00:02:54;;;;;;;8.95;6.03;;;8.30;98.10;;;;;;5052768;28;20028;-66
2021/01/20 00:05:20;;;;;;;8.00;5.47;;;8.30;98.00;;;;;;5052463;28;20036;-66
2021/01/20 00:07:45;;;;;;;8.70;5.20;;;8.30;98.00;;;;;;5052526;28;20079;-66
2021/01/20 00:10:12;;;;;;;9.63;5.97;;;8.30;98.00;;;;;;5053088;28;20036;-66
2021/01/20 00:12:38;;;;;;;9.30;6.18;;;8.20;98.00;;;;;;5052380;28;20493;-66
2021/01/20 00:15:05;;;;;;;8.80;5.97;;;8.20;98.00;;;;;;5052321;28;20039;-66
2021/01/20 00:17:31;;;;;;;8.82;5.70;;;8.20;98.00;;;;;;5051328;28;20060;-66
2021/01/20 00:19:57;;;;;;;9.95;5.88;;;8.20;98.10;;;;;;5069802;28;20502;-66
2021/01/20 00:22:22;;;;;;;9.77;6.15;;;8.10;98.00;;;;;;5056905;28;20039;-66
2021/01/20 00:24:53;;;;;;;8.60;5.85;;;8.00;98.00;;;;;;5063726;28;20058;-66
2021/01/20 00:27:19;;;;;;;9.57;6.32;;;8.10;97.90;;;;;;5057509;28;20119;-66
2021/01/20 00:29:45;;;;;;;10.18;5.70;;;8.00;97.90;;;;;;5051946;28;20029;-66
2021/01/20 00:32:10;;;;;;;8.40;5.68;;;8.00;97.90;;;;;;5052585;28;20036;-67
2021/01/20 00:34:36;;;;;;;9.77;5.97;;;8.00;97.90;;;;;;5053361;28;20382;-67
2021/01/20 00:37:01;;;;;;;9.23;5.47;;;8.00;98.00;;;;;;5081017;28;20071;-66
2021/01/20 00:39:27;;;;;;;9.80;7.07;;;8.00;98.00;;;;;;5063371;28;20025;-66
2021/01/20 00:41:52;;;;;;;8.68;6.38;;;7.90;98.00;;;;;;5052721;28;20059;-67
2021/01/20 00:44:18;;;;;;;9.18;6.18;;;8.00;98.00;;;;;;5051334;28;20094;-65
2021/01/20 00:46:43;;;;;;;9.57;6.13;;;7.90;98.00;;;;;;5051193;28;20483;-66
2021/01/20 00:49:09;;;;;;;8.05;5.65;;;7.90;98.00;;;;;;5052080;28;20055;-67
2021/01/20 00:51:34;;;;;;;8.40;6.03;;;7.90;98.00;;;;;;5051934;28;20068;-67
2021/01/20 00:53:59;;;;;;;8.07;5.63;;;7.90;98.00;;;;;;5051717;28;20032;-67
2021/01/20 00:56:25;;;;;;;8.20;5.60;;;7.90;98.00;;;;;;5051577;28;20037;-67
2021/01/20 00:58:50;;;;;;;7.90;5.28;;;7.80;98.00;;;;;;5051266;28;20021;-67
2021/01/20 01:01:16;;;;;;;9.27;5.57;;;7.80;98.00;;;;;;5052091;28;20366;-66
2021/01/20 01:03:41;;;;;;;8.82;5.80;;;7.80;98.00;;;;;;5051841;28;20047;-65
2021/01/20 01:06:07;;;;;;;9.48;5.78;;;7.80;98.10;;;;;;5050898;28;20079;-65
2021/01/20 01:08:33;;;;;;;9.18;5.78;;;7.80;98.00;;;;;;5051352;28;20033;-65
2021/01/20 01:10:59;;;;;;;8.07;5.85;;;7.70;98.00;;;;;;5063212;28;20374;-65
2021/01/20 01:13:24;;;;;;;9.18;5.15;;;7.80;98.00;;;;;;5050009;28;20029;-65
2021/01/20 01:15:50;;;;;;;7.57;5.18;;;7.70;98.00;;;;;;5051942;28;20131;-66
2021/01/20 01:18:15;;;;;;;7.18;5.45;;;7.80;98.00;;;;;;5051400;28;20025;-66
2021/01/20 01:20:41;;;;;;;7.85;5.63;;;7.70;98.00;;;;;;5051235;28;20025;-66
2021/01/20 01:23:06;;;;;;;8.48;5.68;;;7.70;98.00;;;;;;5050880;28;20041;-66
2021/01/20 01:25:32;;;;;;;8.15;4.93;;;7.70;98.00;;;;;;5051318;28;20469;-66
2021/01/20 01:27:58;;;;;;;9.32;5.43;;;7.70;98.10;;;;;;5051294;28;20033;-66
2021/01/20 01:30:23;;;;;;;8.32;5.85;;;7.80;98.10;;;;;;5050925;28;20029;-66
2021/01/20 01:32:49;;;;;;;8.70;5.70;;;7.70;98.10;;;;;;5051219;28;20338;-66
2021/01/20 01:35:14;;;;;;;7.63;5.28;;;7.70;98.10;;;;;;5051940;28;20037;-65
2021/01/20 01:37:40;;;;;;;8.38;5.28;;;7.70;98.20;;;;;;5049789;28;20484;-66
2021/01/20 01:40:06;;;;;;;8.85;5.97;;;7.70;98.20;;;;;;5065000;28;20595;-66
2021/01/20 01:42:32;;;;;;;8.45;5.72;;;7.70;98.20;;;;;;5070920;28;20028;-66
2021/01/20 01:44:57;;;;;;;8.98;5.88;;;7.70;98.10;;;;;;5064657;28;20037;-66
2021/01/20 01:47:24;;;;;;;11.02;6.15;;;7.70;98.20;;;;;;5071517;28;20323;-65
2021/01/20 01:49:49;;;;;;;9.32;5.65;;;7.70;98.20;;;;;;5068572;28;20081;-65
2021/01/20 01:52:15;;;;;;;8.50;5.90;;;7.70;98.20;;;;;;5071438;28;20024;-66
2021/01/20 01:54:41;;;;;;;9.38;5.80;;;7.70;98.10;;;;;;5054146;28;20039;-66
2021/01/20 01:57:07;;;;;;;8.93;5.95;;;7.70;98.10;;;;;;5050770;28;20035;-66
2021/01/20 01:59:32;;;;;;;8.70;5.70;;;7.70;98.00;;;;;;5071790;28;20024;-66
2021/01/20 02:01:58;;;;;;;7.78;5.80;;;7.70;98.10;;;;;;5091184;28;20472;-66
2021/01/20 02:04:23;;;;;;;8.95;6.05;;;7.60;98.10;;;;;;5060114;28;20044;-66
2021/01/20 02:06:55;;;;;;;9.40;6.20;;;7.60;98.10;;;;;;5051574;28;20373;-66
2021/01/20 02:09:21;;;;;;;8.63;6.10;;;7.60;98.10;;;;;;5048958;28;20076;-66
2021/01/20 02:12:00;;;;;;;9.63;6.32;;;7.60;98.20;;;;;;5050692;28;20029;-66
2021/01/20 02:14:28;;;;;;;8.50;6.30;;;7.50;98.20;;;;;;5051556;28;20055;-66
2021/01/20 02:17:06;;;;;;;10.38;6.80;;;7.60;98.20;;;;;;5052586;28;20397;-67
2021/01/20 02:20:04;;;;;;;10.13;6.90;;;7.60;98.20;;;;;;5054637;28;20029;-66
2021/01/20 02:22:35;;;;;;;9.95;6.40;;;7.60;98.10;;;;;;5063347;28;20408;-66
2021/01/20 02:25:31;;;;;;;9.02;6.38;;;7.60;98.10;;;;;;5074946;28;20059;-66
2021/01/20 02:28:13;;;;;;;9.48;6.38;;;7.60;98.10;;;;;;5055082;28;20385;-66
2021/01/20 02:30:41;;;;;;;9.18;6.50;;;7.60;98.10;;;;;;5054587;28;20633;-66
2021/01/20 02:33:08;;;;;;;9.27;6.90;;;7.60;98.10;;;;;;5054789;28;20483;-66
2021/01/20 02:35:35;;;;;;;10.15;7.05;;;7.60;98.30;;;;;;5055015;28;20048;-66
2021/01/20 02:38:04;;;;;;;8.82;6.25;;;7.60;98.10;;;;;;5053628;28;20436;-65
2021/01/20 02:40:31;;;;;;;11.65;6.70;;;7.60;98.10;;;;;;5054342;28;20029;-66
2021/01/20 02:42:56;;;;;;;10.18;6.63;;;7.60;98.10;;;;;;5054458;28;20029;-66
2021/01/20 02:45:22;;;;;;;10.85;7.60;;;7.60;98.00;;;;;;5053931;28;20105;-66
2021/01/20 02:47:49;;;;;;;9.10;6.78;;;7.60;98.00;;;;;;5054981;28;20033;-66
2021/01/20 02:50:15;;;;;;;8.60;6.82;;;7.60;98.00;;;;;;5054243;28;20062;-67
2021/01/20 02:52:55;;;;;;;9.43;6.93;;;7.60;97.90;;;;;;5055991;28;20035;-66
2021/01/20 02:55:22;;;;;;;10.20;7.22;;;7.60;97.90;;;;;;5054057;28;20532;-66
2021/01/20 02:57:53;;;;;;;10.63;7.28;;;7.60;97.90;;;;;;5054291;28;20466;-66
2021/01/20 03:00:20;;;;;;;9.48;6.93;;;7.60;97.90;;;;;;5053406;28;20044;-66
2021/01/20 03:02:49;;;;;;;9.40;6.93;;;7.60;97.90;;;;;;5054359;28;20029;-67
2021/01/20 03:05:17;;;;;;;9.45;7.07;;;7.60;97.90;;;;;;5054198;28;20044;-66
2021/01/20 03:07:43;;;;;;;11.48;7.70;;;7.60;97.90;;;;;;5053997;28;20021;-66
2021/01/20 03:10:10;;;;;;;10.23;6.95;;;7.60;97.80;;;;;;5052564;28;20559;-66
2021/01/20 03:12:36;;;;;;;10.20;6.65;;;7.60;97.90;;;;;;5053699;28;20104;-66
2021/01/20 03:15:03;;;;;;;9.00;6.22;;;7.60;97.80;;;;;;5053748;28;20033;-66
2021/01/20 03:17:31;;;;;;;9.52;7.07;;;7.60;97.70;;;;;;5053808;28;20111;-66
2021/01/20 03:19:57;;;;;;;8.32;6.65;;;7.60;97.70;;;;;;5053960;28;20416;-67
2021/01/20 03:22:22;;;;;;;9.77;7.32;;;7.70;97.70;;;;;;5052505;28;20037;-66
2021/01/20 03:24:47;;;;;;;10.15;6.50;;;7.70;97.70;;;;;;5092957;28;20050;-66
2021/01/20 03:27:13;;;;;;;8.75;6.95;;;7.70;97.70;;;;;;5072979;28;20075;-66
2021/01/20 03:29:38;;;;;;;9.57;7.20;;;7.70;97.60;;;;;;5073345;28;20472;-67
2021/01/20 03:32:04;;;;;;;9.15;6.35;;;7.60;97.60;;;;;;5057751;28;20044;-67
2021/01/20 03:34:30;;;;;;;9.45;6.55;;;7.70;97.60;;;;;;5052868;28;20048;-67
2021/01/20 03:36:55;;;;;;;8.68;6.20;;;7.70;97.50;;;;;;5054151;28;20041;-67
2021/01/20 03:39:21;;;;;;;9.13;6.93;;;7.70;97.50;;;;;;5053721;28;20116;-67
2021/01/20 03:41:46;;;;;;;10.20;6.97;;;7.70;97.40;;;;;;5072516;28;20135;-67
2021/01/20 03:44:12;;;;;;;9.05;6.10;;;7.70;97.40;;;;;;5073570;28;20086;-69
2021/01/20 03:46:37;;;;;;;9.80;6.68;;;7.60;97.40;;;;;;5061444;28;20029;-67
2021/01/20 03:49:03;;;;;;;10.50;6.05;;;7.60;97.30;;;;;;5053602;28;20025;-67
2021/01/20 03:51:29;;;;;;;9.10;6.13;;;7.70;97.30;;;;;;5053031;28;20082;-67
2021/01/20 03:53:56;;;;;;;9.20;6.70;;;7.60;97.30;;;;;;5053668;28;20028;-67
2021/01/20 03:56:21;;;;;;;7.65;5.82;;;7.60;97.20;;;;;;5052710;28;20548;-66
2021/01/20 03:58:47;;;;;;;8.43;5.85;;;7.60;97.10;;;;;;5052012;28;20116;-66
2021/01/20 04:01:12;;;;;;;8.45;5.95;;;7.70;97.00;;;;;;5053543;28;20107;-67
2021/01/20 04:03:38;;;;;;;7.15;4.85;;;7.70;96.90;;;;;;5053200;28;20021;-66
2021/01/20 04:06:04;;;;;;;9.05;5.03;;;7.70;96.70;;;;;;5053917;28;20032;-66
2021/01/20 04:08:30;;;;;;;6.85;5.22;;;7.60;96.70;;;;;;5051361;28;20067;-66
2021/01/20 04:10:55;;;;;;;8.75;5.47;;;7.50;96.60;;;;;;5052769;28;20099;-67
2021/01/20 04:13:23;;;;;;;7.63;5.07;;;7.50;96.70;;;;;;5053235;28;20116;-66
2021/01/20 04:15:48;;;;;;;7.38;5.40;;;7.50;96.70;;;;;;5053519;28;20036;-66
2021/01/20 04:18:14;;;;;;;7.22;5.05;;;7.50;96.60;;;;;;5053117;28;20021;-66
2021/01/20 04:20:39;;;;;;;8.35;5.00;;;7.50;96.50;;;;;;5053840;28;20040;-66
2021/01/20 04:23:05;;;;;;;7.97;5.03;;;7.50;96.50;;;;;;5052880;28;20024;-66
2021/01/20 04:25:30;;;;;;;7.47;5.05;;;7.40;96.40;;;;;;5052580;28;20116;-66
2021/01/20 04:27:56;;;;;;;8.30;5.07;;;7.40;96.40;;;;;;5052805;28;20087;-66
2021/01/20 04:30:21;;;;;;;8.25;5.55;;;7.40;96.30;;;;;;5052733;28;20021;-65
2021/01/20 04:32:47;;;;;;;8.38;5.78;;;7.40;96.30;;;;;;5054239;28;20499;-66
2021/01/20 04:35:12;;;;;;;9.82;6.47;;;7.30;96.30;;;;;;5051414;28;20558;-65
2021/01/20 04:37:38;;;;;;;9.27;5.95;;;7.30;96.50;;;;;;5055182;28;20039;-65
2021/01/20 04:40:04;;;;;;;10.40;5.47;;;7.30;96.30;;;;;;5052592;28;20025;-65
2021/01/20 04:42:30;;;;;;;10.68;5.95;;;7.20;96.30;;;;;;5056544;28;20032;-65
2021/01/20 04:44:56;;;;;;;8.90;6.22;;;7.20;96.30;;;;;;5052354;28;20133;-65
2021/01/20 04:47:22;;;;;;;9.50;5.32;;;7.10;96.20;;;;;;5053070;28;20442;-65
2021/01/20 04:49:51;;;;;;;7.88;5.20;;;7.20;96.30;;;;;;5067520;28;20385;-66
2021/01/20 04:52:18;;;;;;;9.85;5.53;;;7.10;96.20;;;;;;5055553;28;20482;-65
2021/01/20 04:54:45;;;;;;;9.35;5.95;;;7.20;96.20;;;;;;5052551;28;20025;-65
2021/01/20 04:57:13;;;;;;;7.40;4.93;;;7.10;96.20;;;;;;5055698;28;20049;-65
2021/01/20 04:59:41;;;;;;;8.45;4.50;;;7.10;96.20;;;;;;5050616;28;20491;-66
2021/01/20 05:02:10;;;;;;;8.63;5.30;;;7.20;96.20;;;;;;5060199;28;20102;-65
2021/01/20 05:04:39;;;;;;;8.02;5.22;;;7.10;96.10;;;;;;5065777;28;20024;-65
2021/01/20 05:07:06;;;;;;;8.77;5.25;;;7.10;96.10;;;;;;5055382;28;20141;-65
2021/01/20 05:09:32;;;;;;;7.30;5.40;;;7.10;96.10;;;;;;5056192;28;20503;-66
2021/01/20 05:11:57;;;;;;;9.57;4.95;;;7.10;96.10;;;;;;5052379;28;20028;-66
2021/01/20 05:14:23;;;;;;;9.77;4.82;;;7.10;96.30;;;;;;5051924;28;20025;-66
2021/01/20 05:16:50;;;;;;;7.97;5.15;;;7.10;96.10;;;;;;5051775;28;20473;-65
2021/01/20 05:19:32;;;;;;;7.60;4.80;;;7.10;96.10;;;;;;5060966;28;20032;-66
2021/01/20 05:22:04;;;;;;;7.43;4.85;;;7.10;96.10;;;;;;5055966;28;20033;-66
2021/01/20 05:24:32;;;;;;;7.10;4.68;;;7.20;96.10;;;;;;5059616;28;20036;-66
2021/01/20 05:26:58;;;;;;;9.43;4.93;;;7.10;96.10;;;;;;5051609;28;20029;-65
2021/01/20 05:29:23;;;;;;;8.77;4.50;;;7.10;96.20;;;;;;5050533;28;20021;-66
2021/01/20 05:31:49;;;;;;;6.70;4.75;;;7.10;96.10;;;;;;5050861;28;20013;-66
2021/01/20 05:34:29;;;;;;;7.15;5.03;;;7.10;96.10;;;;;;5052165;28;20041;-65
2021/01/20 05:37:07;;;;;;;7.20;4.57;;;7.10;96.10;;;;;;5058366;28;20033;-65
2021/01/20 05:39:34;;;;;;;7.15;4.55;;;7.10;96.10;;;;;;5056506;28;20072;-65
2021/01/20 05:42:08;;;;;;;6.57;4.65;;;7.10;96.10;;;;;;5060635;28;20150;-66
2021/01/20 05:44:34;;;;;;;6.97;5.05;;;7.00;96.10;;;;;;5064032;28;20048;-66
2021/01/20 05:47:13;;;;;;;8.02;4.72;;;7.00;96.20;;;;;;5055285;28;20057;-65
2021/01/20 05:49:39;;;;;;;7.32;4.65;;;7.00;96.20;;;;;;5065276;28;20028;-65
2021/01/20 05:52:16;;;;;;;6.78;4.63;;;7.00;96.20;;;;;;5060619;28;20025;-65
2021/01/20 05:54:42;;;;;;;9.02;4.95;;;7.00;96.20;;;;;;5052507;28;20039;-66
2021/01/20 05:57:19;;;;;;;8.68;5.10;;;7.00;96.20;;;;;;5051355;28;20120;-66
2021/01/20 05:59:47;;;;;;;9.77;4.97;;;7.00;96.20;;;;;;5051345;28;20143;-66
2021/01/20 06:02:13;;;;;;;7.47;4.60;;;7.00;96.20;;;;;;5063947;28;20037;-66
2021/01/20 06:04:39;;;;;;;8.18;5.00;;;7.00;96.10;;;;;;5058436;28;20025;-66
2021/01/20 06:07:08;;;;;;;7.07;4.90;;;7.00;96.00;;;;;;5050617;28;20382;-66
2021/01/20 06:09:39;;;;;;;8.50;4.85;;;7.00;96.00;;;;;;5067115;28;20028;-66
2021/01/20 06:12:09;;;;;;;6.72;4.47;;;6.90;95.90;;;;;;5068772;28;20028;-66
2021/01/20 06:14:34;;;;;;;7.30;4.10;;;6.90;95.90;;;;;;5052469;28;20041;-66
2021/01/20 06:17:14;;;;;;;9.05;4.53;;;6.90;95.90;;;;;;5050789;28;20068;-66
2021/01/20 06:19:46;;;;;;;7.40;4.20;;;6.90;96.00;;;;;;5051330;28;20041;-66
2021/01/20 06:22:17;;;;;;;6.53;4.05;;;6.90;95.90;;;;;;5050501;28;20405;-66
2021/01/20 06:24:52;;;;;;;7.43;4.90;;;6.90;95.80;;;;;;5070192;28;20119;-66
2021/01/20 06:27:42;;;;;;;7.43;4.45;;;6.90;95.70;;;;;;5053742;28;20477;-66
2021/01/20 06:30:16;;;;;;;7.55;3.95;;;6.90;95.70;;;;;;5051009;28;20036;-66
2021/01/20 06:32:44;;;;;;;7.53;3.97;;;6.90;95.70;;;;;;5050419;28;20040;-67
2021/01/20 06:35:11;;;;;;;7.35;4.25;;;6.80;95.70;;;;;;5050623;28;20292;-67
2021/01/20 06:37:41;;;;;;;5.65;4.05;;;6.90;95.70;;;;;;5052385;28;20033;-65
2021/01/20 06:40:26;;;;;;;10.20;4.65;;;6.90;95.70;;;;;;5056444;28;20460;-65
2021/01/20 06:42:53;;;;;;;7.03;4.07;;;6.80;95.70;;;;;;5049688;28;20029;-65
2021/01/20 06:45:19;;;;;;;7.97;4.55;;;6.80;95.80;;;;;;5050320;28;20048;-65
2021/01/20 06:48:00;;;;;;;6.75;4.25;;;6.80;95.70;;;;;;5057973;28;20040;-66
2021/01/20 06:50:29;;;;;;;8.27;4.70;;;6.80;95.70;;;;;;5050194;28;20034;-66
2021/01/20 06:53:03;;;;;;;6.35;3.83;;;6.90;95.70;;;;;;5070163;28;20086;-66
2021/01/20 06:55:39;;;;;;;8.02;4.57;;;6.80;95.60;;;;;;5051754;28;20029;-66
2021/01/20 06:58:24;;;;;;;6.63;4.20;;;6.90;95.60;;;;;;5053686;28;20493;-68
2021/01/20 07:00:58;;;;;;;8.43;4.55;;;6.80;95.50;;;;;;5056796;28;20074;-67
2021/01/20 07:03:41;;;;;;;9.85;5.40;;;6.80;95.50;;;;;;5063958;28;20033;-66
2021/01/20 07:06:34;;;;;;;9.05;6.82;;;6.80;95.40;;;;;;5055321;28;20032;-66
2021/01/20 07:09:05;;;;;;;7.28;4.53;;;6.80;95.40;;;;;;5054436;28;20025;-65
2021/01/20 07:11:30;;;;;;;6.93;4.05;;;6.70;95.40;;;;;;5054232;28;20116;-66
2021/01/20 07:13:56;;;;;;;7.95;4.57;;;6.70;95.60;;;;;;5053740;28;20462;-64
2021/01/20 07:16:22;;;;;;;6.07;4.25;;;6.70;95.40;;;;;;5056560;28;20075;-64
2021/01/20 07:18:52;;;;;;;9.00;4.35;;;6.70;95.40;;;;;;5068070;28;20021;-64
2021/01/20 07:21:19;;;;;;;7.90;4.25;;;6.70;95.40;;;;;;5060417;28;20508;-64
2021/01/20 07:23:44;;;;;;;7.30;4.53;;;6.70;95.40;;;;;;5052530;28;20025;-65
2021/01/20 07:26:11;;;;;;;6.50;4.35;;;6.70;95.40;;;;;;5054854;28;20032;-64
2021/01/20 07:28:38;;;;;;;8.00;4.32;;;6.70;95.40;;;;;;5057569;28;20028;-65
2021/01/20 07:31:12;;;;;;;6.82;4.40;;;6.80;95.40;;;;;;5054125;28;20108;-65
2021/01/20 07:33:52;;;;;;;7.13;4.45;;;6.80;95.40;;;;;;5060018;28;20039;-65
2021/01/20 07:36:20;;;;;;;7.85;4.68;;;6.80;95.40;;;;;;5060916;28;20045;-64
2021/01/20 07:38:47;;;;;;;9.23;4.70;;;6.80;95.20;;;;;;5059638;28;20465;-65
2021/01/20 07:41:18;;;;;;;7.47;4.15;;;6.80;95.20;;;;;;5058303;28;20140;-65
2021/01/20 07:43:44;;;;;;;6.13;3.95;;;6.90;95.40;;;;;;5059303;28;20085;-64
2021/01/20 07:46:18;;;;;;;7.93;5.03;;;6.90;95.20;;;;;;5065418;28;20119;-65
2021/01/20 07:48:44;;;;;;;9.88;4.95;;;6.90;95.20;;;;;;5069546;28;20038;-65
2021/01/20 07:51:15;;;;;;;9.02;5.13;;;6.90;95.20;;;;;;5064770;28;20095;-64
2021/01/20 07:53:40;;;;;;;11.98;5.40;;;6.90;95.10;;;;;;5053580;28;20033;-65
2021/01/20 07:56:06;;;;;;;7.63;4.80;;;6.90;95.10;;;;;;5065583;28;20493;-65
2021/01/20 07:58:31;;;;;;;9.25;5.05;;;6.90;95.00;;;;;;5068426;28;20115;-66
2021/01/20 08:00:57;;;;;;;7.60;4.57;;;7.00;95.00;;;;;;5068410;28;20051;-66
2021/01/20 08:03:36;;;;;;;7.28;4.30;;;6.90;95.00;;;;;;5073154;28;20372;-66
2021/01/20 08:06:07;;;;;;;10.43;4.60;;;7.00;95.00;;;;;;5053873;28;20564;-65
2021/01/20 08:08:32;;;;;;;6.97;4.18;;;7.00;95.10;;;;;;5052865;28;20033;-65
2021/01/20 08:11:00;;;;;;;6.18;3.85;;;7.00;95.00;;;;;;5052520;28;20078;-65
2021/01/20 08:13:29;;;;;;;6.47;4.30;;;7.00;95.00;;;;;;5053022;28;20373;-64
2021/01/20 08:15:55;;;;;;;8.38;4.10;;;7.10;95.00;;;;;;5051696;28;20037;-65
2021/01/20 08:18:22;;;;;;;6.72;4.18;;;7.10;95.00;;;;;;5060700;28;20029;-65
2021/01/20 08:20:48;;;;;;;10.88;4.00;;;7.10;95.00;;;;;;5059643;28;20483;-64
2021/01/20 08:23:29;;;;;;;7.78;3.83;;;7.20;94.90;;;;;;5059007;28;20082;-65
2021/01/20 08:26:07;;;;;;;6.75;3.97;;;7.20;94.90;;;;;;5060371;28;20550;-65
2021/01/20 08:28:33;;;;;;;7.97;3.72;;;7.20;94.80;;;;;;5058081;28;20028;-65
2021/01/20 08:31:18;;;;;;;9.25;4.22;;;7.20;95.00;;;;;;5064890;28;20393;-66
2021/01/20 08:33:43;;;;;;;6.13;3.63;;;7.30;94.80;;;;;;5054745;28;20043;-65
2021/01/20 08:36:09;;;;;;;7.65;4.35;;;7.30;94.80;;;;;;5052638;28;20037;-65
2021/01/20 08:38:34;;;;;;;7.28;3.85;;;7.40;94.70;;;;;;5052258;28;20082;-65
2021/01/20 08:41:13;;;;;;;12.15;4.72;;;7.40;94.70;;;;;;5055455;28;20564;-66
2021/01/20 08:43:39;;;;;;;8.43;4.70;;;7.40;94.70;;;;;;5052312;28;20493;-65
2021/01/20 08:46:21;;;;;;;8.55;4.43;;;7.50;94.50;;;;;;5055844;28;20063;-65
2021/01/20 08:48:57;;;;;;;8.10;4.45;;;7.50;94.50;;;;;;5057982;28;20547;-65
2021/01/20 08:51:23;;;;;;;5.65;3.80;;;7.60;94.50;;;;;;5061935;28;20484;-66
2021/01/20 08:53:48;;;;;;;5.97;3.83;;;7.60;94.40;;;;;;5055447;28;20035;-66
2021/01/20 08:56:24;;;;;;;8.18;4.22;;;7.60;94.30;;;;;;5052177;28;20505;-66
2021/01/20 08:58:54;;;;;;;8.93;4.60;;;7.70;94.10;;;;;;5052350;28;20217;-65
2021/01/20 09:01:26;;;;;;;8.68;4.70;;;7.70;94.00;;;;;;5051318;28;20539;-65
2021/01/20 09:03:59;;;;;;;9.05;4.70;;;7.70;93.90;;;;;;5068355;28;20094;-66
2021/01/20 09:06:26;;;;;;;9.52;4.00;;;7.80;93.80;;;;;;5062028;28;20485;-66
2021/01/20 09:08:53;;;;;;;7.70;4.43;;;7.80;93.80;;;;;;5059188;28;20412;-65
2021/01/20 09:11:18;;;;;;;7.80;4.20;;;7.80;93.80;;;;;;5058632;28;20355;-66
2021/01/20 09:13:44;;;;;;;5.93;3.80;;;7.80;93.80;;;;;;5065707;28;20031;-66
2021/01/20 09:16:10;;;;;;;6.93;3.67;;;7.90;93.70;;;;;;5065059;28;20455;-66
2021/01/20 09:18:35;;;;;;;7.50;4.05;;;8.00;93.70;;;;;;5058095;28;20025;-66
2021/01/20 09:21:01;;;;;;;7.57;3.33;;;8.00;93.60;;;;;;5057821;28;20324;-65
2021/01/20 09:23:27;;;;;;;9.45;4.18;;;8.10;93.60;;;;;;5069786;28;20070;-65
2021/01/20 09:25:54;;;;;;;7.43;3.67;;;8.10;93.50;;;;;;5054530;28;20040;-65
2021/01/20 09:28:20;;;;;;;6.75;3.63;;;8.10;93.40;;;;;;5074193;28;20028;-65
2021/01/20 09:30:46;;;;;;;5.68;3.00;;;8.20;93.40;;;;;;5060416;28;20508;-66
2021/01/20 09:33:11;;;;;;;5.35;3.00;;;8.20;93.20;;;;;;5051362;28;20389;-65
2021/01/20 09:35:37;;;;;;;5.65;3.50;;;8.20;93.10;;;;;;5065765;28;20031;-66
2021/01/20 09:38:04;;;;;;;5.07;3.30;;;8.30;93.10;;;;;;5070579;28;20111;-69
2021/01/20 09:40:30;;;;;;;5.95;3.35;;;8.30;92.90;;;;;;5059493;28;20128;-70
2021/01/20 09:42:56;;;;;;;6.53;3.42;;;8.30;93.00;;;;;;5050553;28;20032;-68
2021/01/20 09:45:27;;;;;;;4.88;2.80;;;8.40;92.90;;;;;;5052675;28;20052;-67
2021/01/20 09:47:54;;;;;;;5.47;3.38;;;8.40;92.90;;;;;;5053452;28;20028;-68
2021/01/20 09:50:19;;;;;;;7.75;3.33;;;8.50;92.80;;;;;;5059108;28;20024;-67
2021/01/20 09:52:47;;;;;;;6.97;3.60;;;8.40;92.60;;;;;;5068558;28;20017;-67
2021/01/20 09:55:13;;;;;;;6.93;3.45;;;8.50;92.60;;;;;;5057999;28;20087;-67
2021/01/20 09:57:38;;;;;;;7.60;3.30;;;8.60;92.50;;;;;;5065692;28;20059;-66
2021/01/20 10:00:05;;;;;;;6.00;3.20;;;8.60;92.40;;;;;;5053975;28;20055;-66
2021/01/20 10:02:31;;;;;;;5.22;3.03;;;8.60;92.30;;;;;;5050748;28;20040;-66
2021/01/20 10:04:58;;;;;;;6.47;3.17;;;8.60;92.20;;;;;;5068538;28;20021;-66
2021/01/20 10:07:23;;;;;;;5.88;2.92;;;8.70;92.10;;;;;;5066041;28;20028;-66
2021/01/20 10:09:49;;;;;;;5.75;2.85;;;8.70;92.00;;;;;;5068452;28;20426;-67
2021/01/20 10:12:14;;;;;;;5.75;2.80;;;8.80;92.00;;;;;;5055915;28;20025;-66
2021/01/20 10:14:41;;;;;;;5.55;3.13;;;8.70;91.90;;;;;;5058680;28;20081;-67
2021/01/20 10:17:07;;;;;;;5.78;3.35;;;8.80;91.80;;;;;;5067897;28;20433;-67
2021/01/20 10:19:33;;;;;;;5.38;3.08;;;8.80;91.60;;;;;;5064684;28;20475;-67
2021/01/20 10:21:59;;;;;;;4.65;2.83;;;8.80;91.70;;;;;;5061889;28;20033;-67
2021/01/20 10:24:24;;;;;;;6.00;3.20;;;8.80;91.70;;;;;;5062676;28;20017;-68
2021/01/20 10:26:50;;;;;;;6.35;3.22;;;8.90;91.50;;;;;;5056142;28;20047;-67
2021/01/20 10:29:15;;;;;;;5.15;3.00;;;8.90;91.40;;;;;;5058851;28;20051;-67
2021/01/20 10:31:42;;;;;;;6.22;3.17;;;8.90;91.40;;;;;;5050344;28;20040;-67
2021/01/20 10:34:09;;;;;;;7.20;3.15;;;9.00;91.30;;;;;;5049619;28;20032;-67
2021/01/20 10:36:39;;;;;;;5.80;2.95;;;9.10;91.40;;;;;;5050749;28;20037;-67
2021/01/20 10:39:06;;;;;;;4.53;2.63;;;9.10;91.40;;;;;;5068828;28;20032;-67
2021/01/20 10:41:32;;;;;;;5.18;2.90;;;9.20;91.30;;;;;;5066599;28;20052;-67
2021/01/20 10:43:57;;;;;;;5.07;2.80;;;9.20;91.20;;;;;;5067629;28;20083;-66
2021/01/20 10:46:26;;;;;;;4.55;2.88;;;9.30;91.10;;;;;;5072577;28;20047;-66
2021/01/20 10:48:57;;;;;;;6.53;3.13;;;9.40;91.00;;;;;;5070519;28;20515;-67
2021/01/20 10:51:23;;;;;;;5.55;2.78;;;9.40;91.00;;;;;;5056931;28;20029;-66
2021/01/20 10:53:49;;;;;;;5.85;2.90;;;9.40;90.90;;;;;;5059497;28;20454;-67
2021/01/20 10:56:14;;;;;;;6.38;2.85;;;9.50;90.90;;;;;;5056394;28;20080;-67
2021/01/20 10:58:40;;;;;;;4.60;2.75;;;9.50;90.70;;;;;;5058783;28;20118;-66
2021/01/20 11:01:06;;;;;;;4.65;2.47;;;9.60;90.50;;;;;;5060423;28;20527;-67
2021/01/20 11:03:31;;;;;;;4.90;2.78;;;9.60;90.40;;;;;;5061896;28;20536;-66
2021/01/20 11:05:57;;;;;;;4.63;2.97;;;9.70;90.30;;;;;;5058401;28;20120;-67
2021/01/20 11:08:22;;;;;;;4.95;2.97;;;9.80;90.10;;;;;;5064465;28;20023;-66
2021/01/20 11:10:48;;;;;;;6.25;2.95;;;9.80;90.00;;;;;;5059560;28;20495;-67
2021/01/20 11:13:14;;;;;;;7.63;2.90;;;9.90;89.40;;;;;;5054164;28;20017;-66
2021/01/20 11:15:45;;;;;;;5.57;3.25;;;9.90;88.80;;;;;;5068620;28;20029;-67
2021/01/20 11:18:12;;;;;;;3.60;2.58;;;10.00;88.40;;;;;;5055457;28;20037;-67
2021/01/20 11:20:38;;;;;;;3.92;2.30;;;10.10;87.60;;;;;;5054998;28;20037;-67
2021/01/20 11:23:04;;;;;;;5.72;2.83;;;10.10;87.40;;;;;;5068614;28;20037;-67
2021/01/20 11:25:32;;;;;;;7.10;4.47;;;10.10;87.20;;;;;;5055617;28;20047;-67
2021/01/20 11:27:58;;;;;;;5.78;2.55;;;10.20;87.00;;;;;;5069318;28;20390;-67
2021/01/20 11:30:24;;;;;;;4.85;2.63;;;10.20;86.60;;;;;;5053393;28;20027;-68
2021/01/20 11:32:50;;;;;;;4.43;2.40;;;10.30;86.10;;;;;;5068812;28;20416;-69
2021/01/20 11:35:15;;;;;;;4.53;2.65;;;10.30;86.30;;;;;;5070755;28;20116;-67
2021/01/20 11:37:41;;;;;;;5.15;2.70;;;10.40;86.10;;;;;;5066533;28;20048;-69
2021/01/20 11:40:07;;;;;;;3.47;2.28;;;10.40;86.00;;;;;;5073999;28;20488;-68
2021/01/20 11:42:33;;;;;;;5.35;2.30;;;10.50;85.60;;;;;;5068278;28;20127;-68
2021/01/20 11:44:59;;;;;;;4.35;2.45;;;10.50;85.40;;;;;;5056473;28;20516;-66
2021/01/20 11:47:25;;;;;;;3.97;2.35;;;10.50;84.90;;;;;;5065879;28;20041;-66
2021/01/20 11:49:51;;;;;;;4.95;2.28;;;10.60;85.10;;;;;;5058903;28;20040;-66
2021/01/20 11:52:17;;;;;;;4.03;2.53;;;10.60;84.80;;;;;;5069082;28;20040;-66
2021/01/20 11:54:43;;;;;;;4.47;2.40;;;10.60;84.20;;;;;;5053647;28;20526;-67
2021/01/20 11:57:09;;;;;;;4.40;2.38;;;10.70;84.00;;;;;;5062369;28;20049;-66
2021/01/20 11:59:35;;;;;;;4.85;2.65;;;10.70;83.80;;;;;;5067264;28;20021;-66
2021/01/20 12:02:00;;;;;;;3.88;2.30;;;10.70;83.70;;;;;;5065917;28;20055;-66
2021/01/20 12:04:26;;;;;;;6.82;2.60;;;10.70;83.50;;;;;;5055279;28;20027;-66
2021/01/20 12:06:51;;;;;;;4.13;2.28;;;10.70;83.40;;;;;;5059031;28;20123;-67
2021/01/20 12:09:17;;;;;;;7.47;2.20;;;10.70;82.90;;;;;;5059794;28;20029;-68
2021/01/20 12:11:42;;;;;;;3.95;2.33;;;10.80;82.80;;;;;;5060798;28;20036;-67
2021/01/20 12:14:07;;;;;;;5.43;2.58;;;10.80;83.10;;;;;;5065955;28;20056;-66
2021/01/20 12:16:33;;;;;;;4.90;2.17;;;10.80;82.90;;;;;;5053687;28;20036;-67
2021/01/20 12:18:58;;;;;;;5.13;2.20;;;10.80;82.70;;;;;;5056672;28;20013;-66
2021/01/20 12:21:24;;;;;;;3.85;2.30;;;10.80;83.30;;;;;;5062332;28;20029;-70
2021/01/20 12:23:49;;;;;;;3.10;1.80;;;10.90;82.50;;;;;;5062979;28;20016;-66
2021/01/20 12:26:15;;;;;;;4.75;2.30;;;11.00;82.10;;;;;;5054308;28;20025;-65
2021/01/20 12:28:40;;;;;;;7.57;2.40;;;11.00;82.00;;;;;;5061069;28;20024;-67
2021/01/20 12:31:06;;;;;;;3.30;2.33;;;11.00;81.80;;;;;;5064653;28;20547;-66
2021/01/20 12:33:31;;;;;;;3.88;2.20;;;11.10;81.30;;;;;;5063751;28;20028;-66
2021/01/20 12:35:57;;;;;;;4.30;2.35;;;11.10;80.80;;;;;;5061483;28;20473;-66
2021/01/20 12:38:22;;;;;;;4.43;1.95;;;11.20;81.00;;;;;;5056283;28;20031;-64
2021/01/20 12:40:47;;;;;;;3.53;1.85;;;11.20;80.70;;;;;;5051515;28;20815;-66
2021/01/20 12:43:13;;;;;;;4.07;2.20;;;11.20;80.10;;;;;;5052594;28;20056;-64
2021/01/20 12:45:38;;;;;;;3.40;1.85;;;11.20;79.40;;;;;;5060440;28;20492;-64
2021/01/20 12:48:06;;;;;;;3.92;2.38;;;11.20;78.60;;;;;;5052693;28;20028;-65
2021/01/20 12:50:31;;;;;;;5.05;2.05;;;11.30;78.00;;;;;;5049922;28;20070;-65
2021/01/20 12:52:57;;;;;;;3.35;1.80;;;11.30;77.70;;;;;;5059217;28;20076;-65
2021/01/20 12:55:23;;;;;;;4.07;2.30;;;11.30;77.30;;;;;;5055810;28;20028;-66
2021/01/20 12:57:49;;;;;;;3.78;2.17;;;11.30;77.20;;;;;;5058292;28;20036;-66